createdAt,value
2022-11-08T00:01:01.858Z,96456.73
2022-11-08T00:03:30.556Z,96460.24
2022-11-08T00:06:17.107Z,96454.48
2022-11-08T00:09:03.946Z,96451.30
2022-11-08T00:11:51.014Z,96456.14
2022-11-08T00:14:19.669Z,96458.14
2022-11-08T00:16:47.934Z,96459.27
2022-11-08T00:19:16.011Z,96455.58
2022-11-08T00:21:44.019Z,96458.70
2022-11-08T00:24:12.265Z,96456.67
2022-11-08T00:26:40.268Z,96457.56
2022-11-08T00:29:08.396Z,96456.21
2022-11-08T00:31:36.704Z,96454.48
2022-11-08T00:34:04.864Z,96456.52
2022-11-08T00:36:32.995Z,96456.20
2022-11-08T00:39:01.022Z,96454.48
2022-11-08T00:41:29.084Z,96452.23
2022-11-08T00:43:57.096Z,96451.54
2022-11-08T00:46:25.276Z,96452.90
2022-11-08T00:48:53.488Z,96452.57
2022-11-08T00:51:21.686Z,96454.66
2022-11-08T00:53:50.108Z,96454.34
2022-11-08T00:56:18.158Z,96452.77
2022-11-08T00:58:46.269Z,96458.63
2022-11-08T01:01:18.895Z,96458.16
2022-11-08T01:03:48.512Z,96459.01
2022-11-08T01:06:18.269Z,96461.09
2022-11-08T01:08:47.372Z,96458.38
2022-11-08T01:11:21.702Z,96459.63
2022-11-08T01:13:50.485Z,96461.24
2022-11-08T01:16:24.036Z,96465.41
2022-11-08T01:18:54.674Z,96461.52
2022-11-08T01:21:23.632Z,96460.50
2022-11-08T01:23:52.482Z,96462.12
2022-11-08T01:26:26.412Z,96460.11
2022-11-08T01:28:55.434Z,96461.02
2022-11-08T01:31:26.963Z,96458.52
2022-11-08T01:33:55.326Z,96457.17
2022-11-08T01:36:26.033Z,96459.61
2022-11-08T01:38:55.173Z,96458.44
2022-11-08T01:41:25.226Z,96456.55
2022-11-08T01:43:56.921Z,96454.14
2022-11-08T01:46:32.390Z,96454.42
2022-11-08T01:49:25.058Z,96454.66
2022-11-08T01:51:58.412Z,96455.41
2022-11-08T01:54:36.912Z,96458.17
2022-11-08T01:57:08.792Z,96455.77
2022-11-08T01:59:40.230Z,96455.11
2022-11-08T02:02:10.934Z,96457.14
2022-11-08T02:04:41.549Z,96452.86
2022-11-08T02:07:13.665Z,96449.23
2022-11-08T02:09:44.014Z,96449.93
2022-11-08T02:12:13.707Z,96445.16
2022-11-08T02:14:41.871Z,96445.88
2022-11-08T02:17:10.046Z,96443.63
2022-11-08T02:19:51.209Z,96445.52
2022-11-08T02:22:25.181Z,96443.98
2022-11-08T02:24:54.360Z,96443.36
2022-11-08T02:27:22.527Z,96440.27
2022-11-08T02:29:55.196Z,96442.03
2022-11-08T02:32:23.582Z,96442.74
2022-11-08T02:34:58.242Z,96441.55
2022-11-08T02:37:27.937Z,96439.80
2022-11-08T02:39:56.104Z,96438.91
2022-11-08T02:42:24.235Z,96437.19
2022-11-08T02:44:52.304Z,96438.35
2022-11-08T02:47:20.400Z,96438.16
2022-11-08T02:49:48.544Z,96437.45
2022-11-08T02:52:16.574Z,96437.40
2022-11-08T02:54:44.624Z,96439.45
2022-11-08T02:57:12.811Z,96441.63
2022-11-08T02:59:41.039Z,96439.41
2022-11-08T03:02:09.252Z,96438.19
2022-11-08T03:04:37.378Z,96439.39
2022-11-08T03:07:05.423Z,96440.56
2022-11-08T03:09:33.429Z,96439.87
2022-11-08T03:12:01.418Z,96438.80
2022-11-08T03:14:29.448Z,96440.33
2022-11-08T03:16:57.463Z,96435.67
2022-11-08T03:19:25.578Z,96435.98
2022-11-08T03:21:54.024Z,96440.94
2022-11-08T03:24:22.102Z,96440.09
2022-11-08T03:26:50.266Z,96443.71
2022-11-08T03:29:18.390Z,96441.48
2022-11-08T03:31:46.549Z,96440.79
2022-11-08T03:34:14.532Z,96441.83
2022-11-08T03:36:42.550Z,96442.16
2022-11-08T03:39:11.812Z,96443.73
2022-11-08T03:41:39.880Z,96443.53
2022-11-08T03:44:08.099Z,96440.27
2022-11-08T03:46:36.189Z,96438.72
2022-11-08T03:49:04.174Z,96441.77
2022-11-08T03:51:32.187Z,96442.11
2022-11-08T03:54:00.228Z,96441.94
2022-11-08T03:56:28.212Z,96445.89
2022-11-08T03:58:56.406Z,96445.58
2022-11-08T04:01:24.544Z,96449.55
2022-11-08T04:03:52.768Z,96444.95
2022-11-08T04:06:20.731Z,96445.66
2022-11-08T04:08:48.783Z,96447.73
2022-11-08T04:11:35.539Z,96445.36
2022-11-08T04:14:22.448Z,96446.29
2022-11-08T04:16:50.614Z,96447.52
2022-11-08T04:19:37.344Z,96447.37
2022-11-08T04:22:07.286Z,96450.29
2022-11-08T04:24:35.340Z,96449.09
2022-11-08T04:27:03.678Z,96447.39
2022-11-08T04:29:31.977Z,96447.36
2022-11-08T04:32:00.109Z,96447.87
2022-11-08T04:34:28.133Z,96445.66
2022-11-08T04:36:56.239Z,96445.64
2022-11-08T04:39:24.265Z,96442.39
2022-11-08T04:41:53.760Z,96438.77
2022-11-08T04:44:24.564Z,96433.31
2022-11-08T04:46:52.628Z,96429.34
2022-11-08T04:49:20.597Z,96425.39
2022-11-08T04:51:48.597Z,96424.33
2022-11-08T04:54:16.598Z,96423.77
2022-11-08T04:56:44.642Z,96422.02
2022-11-08T04:59:13.014Z,96421.30
2022-11-08T05:01:41.150Z,96422.46
2022-11-08T05:04:09.431Z,96423.14
2022-11-08T05:06:37.479Z,96418.39
2022-11-08T05:09:05.587Z,96422.79
2022-11-08T05:11:34.702Z,96418.45
2022-11-08T05:14:03.198Z,96415.98
2022-11-08T05:16:32.825Z,96416.61
2022-11-08T05:19:01.335Z,96417.06
2022-11-08T05:21:48.579Z,96417.19
2022-11-08T05:24:18.391Z,96417.12
2022-11-08T05:26:48.457Z,96418.98
2022-11-08T05:29:17.256Z,96420.71
2022-11-08T05:31:45.699Z,96422.27
2022-11-08T05:34:14.193Z,96419.83
2022-11-08T05:36:42.271Z,96424.29
2022-11-08T05:39:10.369Z,96423.10
2022-11-08T05:41:38.438Z,96427.36
2022-11-08T05:44:06.573Z,96431.80
2022-11-08T05:46:35.436Z,96435.70
2022-11-08T05:49:03.474Z,96435.53
2022-11-08T05:51:32.274Z,96437.69
2022-11-08T05:54:00.382Z,96438.34
2022-11-08T05:56:28.594Z,96440.17
2022-11-08T05:58:56.714Z,96441.45
2022-11-08T06:01:24.773Z,96444.79
2022-11-08T06:03:52.844Z,96443.48
2022-11-08T06:06:22.197Z,96442.69
2022-11-08T06:08:52.835Z,96444.82
2022-11-08T06:11:24.578Z,96442.14
2022-11-08T06:13:55.028Z,96444.90
2022-11-08T06:16:24.578Z,96445.45
2022-11-08T06:18:52.835Z,96447.16
2022-11-08T06:21:21.662Z,96451.28
2022-11-08T06:23:53.928Z,96456.46
2022-11-08T06:26:24.118Z,96456.61
2022-11-08T06:28:52.505Z,96456.59
2022-11-08T06:31:20.762Z,96462.52
2022-11-08T06:33:48.836Z,96461.24
2022-11-08T06:36:16.881Z,96460.48
2022-11-08T06:38:45.013Z,96462.40
2022-11-08T06:41:19.900Z,96463.60
2022-11-08T06:43:49.344Z,96465.14
2022-11-08T06:46:18.195Z,96467.23
2022-11-08T06:48:46.799Z,96469.80
2022-11-08T06:51:15.550Z,96470.73
2022-11-08T06:53:43.716Z,96468.98
2022-11-08T06:56:12.491Z,96473.77
2022-11-08T06:58:41.259Z,96472.19
2022-11-08T07:01:11.007Z,96469.94
2022-11-08T07:03:39.290Z,96466.67
2022-11-08T07:06:07.795Z,96471.02
2022-11-08T07:08:36.112Z,96474.77
2022-11-08T07:11:04.763Z,96470.17
2022-11-08T07:13:32.900Z,96467.27
2022-11-08T07:16:01.963Z,96466.41
2022-11-08T07:18:30.068Z,96465.89
2022-11-08T07:21:00.255Z,96465.58
2022-11-08T07:23:29.302Z,96471.20
2022-11-08T07:26:01.480Z,96473.58
2022-11-08T07:28:30.005Z,96473.70
2022-11-08T07:31:01.033Z,96475.55
2022-11-08T07:33:29.272Z,96476.60
2022-11-08T07:35:57.544Z,96475.82
2022-11-08T07:38:26.620Z,96472.70
2022-11-08T07:41:00.115Z,96473.56
2022-11-08T07:43:29.531Z,96472.00
2022-11-08T07:46:02.449Z,96469.94
2022-11-08T07:48:31.298Z,96468.55
2022-11-08T07:51:00.346Z,96469.36
2022-11-08T07:53:28.667Z,96467.41
2022-11-08T07:55:58.422Z,96464.81
2022-11-08T07:58:26.918Z,96462.06
2022-11-08T08:01:01.434Z,96464.52
2022-11-08T08:03:30.159Z,96465.16
2022-11-08T08:06:01.360Z,96463.23
2022-11-08T08:08:31.251Z,96463.79
2022-11-08T08:11:01.033Z,96459.28
2022-11-08T08:13:29.726Z,96457.92
2022-11-08T08:16:00.448Z,96457.45
2022-11-08T08:18:29.958Z,96453.23
2022-11-08T08:20:58.332Z,96458.98
2022-11-08T08:23:26.897Z,96454.41
2022-11-08T08:25:56.273Z,96455.08
2022-11-08T08:28:24.416Z,96455.91
2022-11-08T08:30:52.448Z,96453.63
2022-11-08T08:33:34.209Z,96460.33
2022-11-08T08:36:02.704Z,96459.41
2022-11-08T08:38:32.623Z,96459.11
2022-11-08T08:41:02.384Z,96456.22
2022-11-08T08:43:33.998Z,96451.77
2022-11-08T08:46:04.339Z,96452.43
2022-11-08T08:48:33.822Z,96449.91
2022-11-08T08:51:01.937Z,96450.11
2022-11-08T08:53:30.193Z,96452.80
2022-11-08T08:55:58.322Z,96456.58
2022-11-08T08:58:26.378Z,96454.92
2022-11-08T09:03:42.412Z,96454.11
2022-11-08T09:06:10.699Z,96453.98
2022-11-08T09:08:38.827Z,96455.98
2022-11-08T09:11:07.017Z,96454.80
2022-11-08T09:13:35.469Z,96456.49
2022-11-08T09:16:03.853Z,96460.11
2022-11-08T09:18:32.705Z,96466.44
2022-11-08T09:21:01.036Z,96465.63
2022-11-08T09:23:29.359Z,96460.00
2022-11-08T09:25:58.696Z,96456.59
2022-11-08T09:28:31.162Z,96453.73
2022-11-08T09:31:05.408Z,96456.03
2022-11-08T09:33:34.297Z,96455.73
2022-11-08T09:36:04.163Z,96454.50
2022-11-08T09:38:32.495Z,96454.13
2022-11-08T09:41:07.258Z,96452.33
2022-11-08T09:43:53.863Z,96454.20
2022-11-08T09:46:50.873Z,96455.87
2022-11-08T09:49:21.629Z,96459.11
2022-11-08T09:51:50.329Z,96455.26
2022-11-08T09:54:24.294Z,96452.98
2022-11-08T09:56:55.712Z,96450.01
2022-11-08T09:59:40.338Z,96452.76
2022-11-08T10:02:20.214Z,96450.36
2022-11-08T10:05:02.991Z,96444.98
2022-11-08T10:07:56.504Z,96448.20
2022-11-08T10:10:57.844Z,96449.98
2022-11-08T10:13:42.176Z,96449.62
2022-11-08T10:16:48.678Z,96445.41
2022-11-08T10:19:44.599Z,96442.53
2022-11-08T10:22:18.176Z,96437.69
2022-11-08T10:25:01.039Z,96435.08
2022-11-08T10:27:57.054Z,96433.14
2022-11-08T10:30:35.783Z,96432.94
2022-11-08T10:33:32.690Z,96424.42
2022-11-08T10:36:10.146Z,96422.00
2022-11-08T10:39:03.490Z,96421.14
2022-11-08T10:42:16.810Z,96417.84
2022-11-08T10:44:48.456Z,96420.42
2022-11-08T10:47:24.809Z,96418.36
2022-11-08T10:49:57.196Z,96418.95
2022-11-08T10:52:37.248Z,96413.33
2022-11-08T10:55:23.051Z,96414.21
2022-11-08T10:57:51.157Z,96408.65
2022-11-08T11:00:22.264Z,96406.73
2022-11-08T11:02:58.207Z,96407.27
2022-11-08T11:05:30.732Z,96401.66
2022-11-08T11:08:02.948Z,96396.25
2022-11-08T11:10:33.120Z,96394.58
2022-11-08T11:13:02.685Z,96386.09
2022-11-08T11:15:47.555Z,96384.38
2022-11-08T11:18:21.900Z,96383.56
2022-11-08T11:21:09.565Z,96378.00
2022-11-08T11:23:40.222Z,96383.06
2022-11-08T11:26:19.524Z,96386.75
2022-11-08T11:29:05.825Z,96383.55
2022-11-08T11:31:45.919Z,96385.27
2022-11-08T11:34:17.041Z,96383.21
2022-11-08T11:36:48.034Z,96380.65
2022-11-08T11:39:24.677Z,96374.54
2022-11-08T11:41:52.699Z,96380.69
2022-11-08T11:44:30.238Z,96377.55
2022-11-08T11:47:04.219Z,96374.53
2022-11-08T11:49:35.454Z,96375.03
2022-11-08T11:52:14.646Z,96373.73
2022-11-08T11:54:44.551Z,96370.86
2022-11-08T11:57:57.994Z,96368.77
2022-11-08T12:00:26.044Z,96365.56
2022-11-08T12:03:20.375Z,96366.02
2022-11-08T12:06:26.687Z,96365.06
2022-11-08T12:09:16.272Z,96361.70
2022-11-08T12:12:03.902Z,96362.42
2022-11-08T12:14:39.931Z,96354.61
2022-11-08T12:17:29.428Z,96357.70
2022-11-08T12:20:21.526Z,96360.15
2022-11-08T12:23:02.801Z,96356.25
2022-11-08T12:25:53.765Z,96357.44
2022-11-08T12:28:43.076Z,96354.30
2022-11-08T12:31:26.332Z,96353.99
2022-11-08T12:34:07.298Z,96354.09
2022-11-08T12:36:44.594Z,96351.85
2022-11-08T12:39:35.175Z,96350.67
2022-11-08T12:42:26.585Z,96346.64
2022-11-08T12:45:25.854Z,96347.18
2022-11-08T12:48:20.576Z,96344.59
2022-11-08T12:51:07.535Z,96337.73
2022-11-08T12:53:48.863Z,96332.20
2022-11-08T12:56:28.616Z,96329.98
2022-11-08T12:58:57.079Z,96330.59
2022-11-08T13:01:25.940Z,96330.56
2022-11-08T13:04:10.000Z,96334.02
2022-11-08T13:06:47.523Z,96330.85
2022-11-08T13:09:22.131Z,96327.94
2022-11-08T13:12:07.346Z,96324.52
2022-11-08T13:14:40.974Z,96326.42
2022-11-08T13:17:14.083Z,96333.44
2022-11-08T13:19:48.781Z,96329.77
2022-11-08T13:22:29.275Z,96331.21
2022-11-08T13:25:02.047Z,96328.73
2022-11-08T13:27:36.043Z,96325.92
2022-11-08T13:30:16.512Z,96324.98
2022-11-08T13:32:59.477Z,96326.27
2022-11-08T13:35:40.663Z,96324.90
2022-11-08T13:38:33.580Z,96325.44
2022-11-08T13:41:10.386Z,96325.89
2022-11-08T13:43:38.867Z,96322.39
2022-11-08T13:46:28.255Z,96322.59
2022-11-08T13:49:02.056Z,96323.11
2022-11-08T13:51:33.831Z,96319.05
2022-11-08T13:54:23.393Z,96321.63
2022-11-08T13:56:54.072Z,96321.98
2022-11-08T13:59:31.443Z,96320.45
2022-11-08T14:02:25.980Z,96315.52
2022-11-08T14:04:54.728Z,96317.31
2022-11-08T14:07:43.137Z,96317.07
2022-11-08T14:10:32.617Z,96317.95
2022-11-08T14:13:23.860Z,96316.65
2022-11-08T14:16:01.247Z,96313.73
2022-11-08T14:18:35.056Z,96310.30
2022-11-08T14:21:05.287Z,96306.00
2022-11-08T14:23:40.193Z,96307.02
2022-11-08T14:26:14.447Z,96307.65
2022-11-08T14:28:45.781Z,96305.89
2022-11-08T14:31:31.695Z,96300.52
2022-11-08T14:34:01.752Z,96300.45
2022-11-08T14:36:31.876Z,96299.83
2022-11-08T14:39:11.991Z,96300.31
2022-11-08T14:41:45.032Z,96296.13
2022-11-08T14:44:33.354Z,96296.86
2022-11-08T14:47:01.619Z,96297.11
2022-11-08T14:49:33.319Z,96292.14
2022-11-08T14:52:15.555Z,96291.02
2022-11-08T14:54:47.173Z,96288.63
2022-11-08T14:57:42.789Z,96286.52
2022-11-08T15:00:24.423Z,96290.66
2022-11-08T15:02:56.415Z,96288.67
2022-11-08T15:05:37.710Z,96289.69
2022-11-08T15:08:20.299Z,96290.24
2022-11-08T15:11:01.088Z,96292.39
2022-11-08T15:13:33.621Z,96291.34
2022-11-08T15:16:04.206Z,96295.73
2022-11-08T15:18:40.999Z,96297.91
2022-11-08T15:21:12.328Z,96290.71
2022-11-08T15:23:46.508Z,96287.98
2022-11-08T15:26:35.502Z,96287.52
2022-11-08T15:29:12.665Z,96286.75
2022-11-08T15:32:01.410Z,96286.21
2022-11-08T15:34:40.905Z,96290.71
2022-11-08T15:37:42.764Z,96286.84
2022-11-08T15:40:28.329Z,96289.34
2022-11-08T15:42:57.445Z,96287.69
2022-11-08T15:45:32.210Z,96285.16
2022-11-08T15:48:22.576Z,96287.38
2022-11-08T15:50:51.141Z,96287.91
2022-11-08T15:53:24.335Z,96289.23
2022-11-08T15:55:57.585Z,96289.05
2022-11-08T15:58:33.328Z,96289.95
2022-11-08T16:01:04.062Z,96290.52
2022-11-08T16:03:34.042Z,96286.64
2022-11-08T16:06:02.115Z,96288.70
2022-11-08T16:08:30.174Z,96286.61
2022-11-08T16:11:00.990Z,96288.02
2022-11-08T16:13:34.346Z,96279.63
2022-11-08T16:16:05.228Z,96279.73
2022-11-08T16:18:34.509Z,96283.84
2022-11-08T16:21:03.337Z,96283.95
2022-11-08T16:23:31.478Z,96283.60
2022-11-08T16:26:01.103Z,96283.17
2022-11-08T16:28:29.904Z,96283.37
2022-11-08T16:30:58.024Z,96288.13
2022-11-08T16:33:28.426Z,96288.17
2022-11-08T16:35:58.921Z,96289.25
2022-11-08T16:38:34.524Z,96289.54
2022-11-08T16:41:04.588Z,96289.13
2022-11-08T16:43:33.435Z,96291.20
2022-11-08T16:46:06.910Z,96289.38
2022-11-08T16:48:38.930Z,96287.06
2022-11-08T16:51:16.669Z,96289.77
2022-11-08T16:53:45.412Z,96293.79
2022-11-08T16:56:13.871Z,96289.90
2022-11-08T16:58:42.950Z,96293.22
2022-11-08T17:01:24.482Z,96288.08
2022-11-08T17:03:52.554Z,96291.10
2022-11-08T17:06:22.182Z,96288.00
2022-11-08T17:08:51.229Z,96287.67
2022-11-08T17:11:22.068Z,96289.29
2022-11-08T17:13:52.769Z,96285.82
2022-11-08T17:16:21.640Z,96283.21
2022-11-08T17:18:53.013Z,96285.36
2022-11-08T17:24:09.940Z,96285.81
2022-11-08T17:26:38.113Z,96291.17
2022-11-08T17:29:08.096Z,96287.91
2022-11-08T17:31:36.394Z,96289.98
2022-11-08T17:34:04.746Z,96288.61
2022-11-08T17:36:33.183Z,96288.95
2022-11-08T17:39:01.395Z,96285.81
2022-11-08T17:41:30.230Z,96290.52
2022-11-08T17:43:58.414Z,96293.38
2022-11-08T17:46:26.639Z,96290.19
2022-11-08T17:48:54.668Z,96290.96
2022-11-08T17:51:22.799Z,96288.48
2022-11-08T17:53:50.922Z,96289.59
2022-11-08T17:56:19.427Z,96288.34
2022-11-08T17:58:47.523Z,96295.10
2022-11-08T18:01:16.644Z,96295.27
2022-11-08T18:03:44.986Z,96293.12
2022-11-08T18:06:14.245Z,96290.83
2022-11-08T18:08:43.421Z,96295.81
2022-11-08T18:11:11.669Z,96297.61
2022-11-08T18:13:40.003Z,96295.04
2022-11-08T18:16:14.158Z,96295.70
2022-11-08T18:18:42.889Z,96294.45
2022-11-08T18:21:11.360Z,96295.45
2022-11-08T18:23:41.436Z,96295.11
2022-11-08T18:26:10.504Z,96296.66
2022-11-08T18:28:40.524Z,96299.16
2022-11-08T18:31:12.208Z,96297.98
2022-11-08T18:33:41.471Z,96299.73
2022-11-08T18:36:31.196Z,96296.16
2022-11-08T18:39:00.694Z,96292.23
2022-11-08T18:41:31.944Z,96292.48
2022-11-08T18:44:01.307Z,96293.27
2022-11-08T18:46:34.260Z,96293.19
2022-11-08T18:49:05.298Z,96295.51
2022-11-08T18:51:33.349Z,96295.98
2022-11-08T18:54:01.373Z,96294.45
2022-11-08T18:56:30.420Z,96294.35
2022-11-08T18:58:58.632Z,96296.71
2022-11-08T19:01:26.926Z,96297.36
2022-11-08T19:03:54.983Z,96298.46
2022-11-08T19:06:23.096Z,96298.84
2022-11-08T19:08:51.276Z,96299.50
2022-11-08T19:11:22.988Z,96296.52
2022-11-08T19:13:51.167Z,96296.38
2022-11-08T19:16:20.815Z,96296.55
2022-11-08T19:18:50.006Z,96301.23
2022-11-08T19:21:23.588Z,96305.41
2022-11-08T19:23:53.416Z,96306.32
2022-11-08T19:26:24.320Z,96306.16
2022-11-08T19:28:58.836Z,96312.92
2022-11-08T19:31:27.153Z,96307.52
2022-11-08T19:34:06.846Z,96311.56
2022-11-08T19:36:43.324Z,96307.06
2022-11-08T19:39:12.336Z,96314.61
2022-11-08T19:41:40.608Z,96310.75
2022-11-08T19:44:10.539Z,96312.65
2022-11-08T19:46:40.784Z,96317.11
2022-11-08T19:49:09.815Z,96317.23
2022-11-08T19:51:38.224Z,96319.23
2022-11-08T19:54:08.771Z,96319.73
2022-11-08T19:59:28.636Z,96319.80
2022-11-08T20:01:57.065Z,96321.84
2022-11-08T20:04:25.286Z,96320.42
2022-11-08T20:06:53.613Z,96321.81
2022-11-08T20:09:27.312Z,96319.33
2022-11-08T20:12:03.217Z,96317.77
2022-11-08T20:14:31.496Z,96319.47
2022-11-08T20:16:59.732Z,96319.03
2022-11-08T20:19:28.077Z,96317.80
2022-11-08T20:21:57.290Z,96319.23
2022-11-08T20:24:25.433Z,96317.57
2022-11-08T20:26:55.043Z,96320.52
2022-11-08T20:29:23.346Z,96312.48
2022-11-08T20:31:53.207Z,96311.02
2022-11-08T20:34:21.297Z,96310.19
2022-11-08T20:36:49.306Z,96310.59
2022-11-08T20:39:17.692Z,96308.59
2022-11-08T20:41:46.752Z,96306.20
2022-11-08T20:44:15.855Z,96310.80
2022-11-08T20:46:43.891Z,96309.13
2022-11-08T20:49:11.927Z,96307.84
2022-11-08T20:51:40.037Z,96312.41
2022-11-08T20:54:10.242Z,96314.55
2022-11-08T20:56:38.609Z,96307.20
2022-11-08T20:59:06.652Z,96308.02
2022-11-08T21:01:35.989Z,96312.95
2022-11-08T21:04:04.231Z,96312.57
2022-11-08T21:06:36.031Z,96314.74
2022-11-08T21:11:54.769Z,96309.25
2022-11-08T21:14:25.909Z,96309.86
2022-11-08T21:19:42.211Z,96310.54
2022-11-08T21:22:16.100Z,96310.06
2022-11-08T21:24:46.204Z,96310.98
2022-11-08T21:27:15.280Z,96307.77
2022-11-08T21:29:43.504Z,96309.23
2022-11-08T21:32:11.706Z,96310.08
2022-11-08T21:34:45.658Z,96310.02
2022-11-08T21:37:14.770Z,96307.92
2022-11-08T21:39:43.030Z,96311.38
2022-11-08T21:42:11.283Z,96312.45
2022-11-08T21:44:39.336Z,96310.55
2022-11-08T21:47:07.390Z,96311.78
2022-11-08T21:49:35.513Z,96308.50
2022-11-08T21:52:03.738Z,96308.64
2022-11-08T21:54:31.806Z,96308.37
2022-11-08T21:56:59.922Z,96306.40
2022-11-08T21:59:28.034Z,96307.88
2022-11-08T22:01:57.094Z,96308.02
2022-11-08T22:04:25.333Z,96307.63
2022-11-08T22:06:53.454Z,96311.79
2022-11-08T22:09:21.675Z,96311.46
2022-11-08T22:11:49.803Z,96310.33
2022-11-08T22:14:17.874Z,96310.17
2022-11-08T22:16:45.999Z,96310.73
2022-11-08T22:19:14.485Z,96313.13
2022-11-08T22:21:43.541Z,96310.20
2022-11-08T22:24:14.301Z,96311.83
2022-11-08T22:26:42.359Z,96309.61
2022-11-08T22:29:10.797Z,96310.55
2022-11-08T22:31:39.720Z,96305.21
2022-11-08T22:34:09.265Z,96305.39
2022-11-08T22:36:44.428Z,96306.23
2022-11-08T22:39:14.651Z,96306.76
2022-11-08T22:41:43.612Z,96306.27
2022-11-08T22:44:13.150Z,96306.42
2022-11-08T22:46:42.547Z,96308.35
2022-11-08T22:49:11.648Z,96306.27
2022-11-08T22:51:40.639Z,96307.27
2022-11-08T22:54:09.613Z,96306.74
2022-11-08T22:56:38.506Z,96306.34
2022-11-08T22:59:06.757Z,96306.35
2022-11-08T23:01:34.956Z,96305.77
2022-11-08T23:04:03.343Z,96307.95
2022-11-08T23:06:31.990Z,96308.94
2022-11-08T23:09:00.202Z,96310.41
2022-11-08T23:11:47.183Z,96306.27
2022-11-08T23:14:37.164Z,96304.30
2022-11-08T23:17:07.346Z,96312.02
2022-11-08T23:19:54.213Z,96313.13
2022-11-08T23:22:41.042Z,96316.03
2022-11-08T23:25:09.437Z,96312.02
2022-11-08T23:27:56.545Z,96313.02
2022-11-08T23:30:43.711Z,96314.67
2022-11-08T23:33:11.829Z,96312.10
2022-11-08T23:35:59.889Z,96314.40
2022-11-08T23:38:27.974Z,96318.96
2022-11-08T23:41:17.491Z,96316.54
2022-11-08T23:44:04.123Z,96316.40
2022-11-08T23:46:32.919Z,96313.85
2022-11-08T23:49:02.577Z,96312.45
2022-11-08T23:51:31.373Z,96309.14
2022-11-08T23:53:59.431Z,96312.55
2022-11-08T23:56:28.717Z,96311.48
2022-11-08T23:58:59.167Z,96312.77
